Date,TemperatureHighF,TemperatureAvgF,TemperatureLowF,DewpointHighF,DewpointAvgF,DewpointLowF,HumidityHigh,HumidityAvg,HumidityLow,PressureMaxIn,PressureMinIn,WindSpeedMaxMPH,WindSpeedAvgMPH,GustSpeedMaxMPH,PrecipitationSumIn
2013-3-1,39,37,35,35,34,33,91,87,81,30.31,30.27,7,2,7,0.00
2013-3-2,43,37,35,34,31,30,83,78,69,30.31,30.25,8,2,8,0.00
2013-3-3,44,36,28,36,31,25,90,81,72,30.27,30.08,10,3,10,0.00
2013-3-4,53,40,30,43,35,27,93,83,69,30.08,29.82,9,4,10,0.00
2013-3-5,60,47,35,44,39,32,90,74,52,29.81,29.63,12,3,12,0.00
2013-3-6,63,48,45,47,32,-100,83,65,50,29.62,29.50,6,-73,6,0.00
2013-3-7,57,50,48,53,47,44,92,89,84,29.51,29.42,5,2,7,0.02
2013-3-8,56,50,44,54,48,42,95,91,88,29.57,29.36,1,1,1,0.18
2013-3-9,61,50,43,52,45,40,95,83,62,29.63,29.57,1,0,1,0.00
2013-3-10,47,42,37,42,38,33,93,87,78,29.63,29.58,1,0,1,0.00
2013-3-11,37,34,31,33,31,29,92,89,84,29.62,29.46,3,1,3,0.02
2013-3-12,32,29,26,29,26,22,93,89,84,29.70,29.40,5,1,5,0.00
2013-3-13,45,30,14,34,24,10,90,81,66,29.89,29.70,4,1,8,0.20
2013-3-14,44,30,25,36,19,-100,93,68,50,30.04,29.89,8,-61,9,0.02
2013-3-15,47,34,20,37,27,17,93,76,57,30.06,29.90,9,2,9,0.00
2013-3-16,48,41,35,37,32,29,87,72,56,29.90,29.55,10,4,10,0.04
2013-3-17,53,42,32,45,38,30,91,86,50,29.55,29.27,13,3,13,0.28
2013-3-18,51,40,30,43,36,28,95,86,72,29.40,29.24,11,2,11,0.02
2013-3-19,54,43,34,44,38,32,93,84,63,29.53,29.41,4,1,5,0.18
2013-3-20,49,42,32,43,38,29,93,87,77,29.99,29.49,5,1,6,0.02
2013-3-21,50,40,30,42,33,-100,94,80,50,30.06,29.97,8,-17,9,0.02
2013-3-22,58,46,37,43,39,34,89,76,57,29.95,29.67,17,5,17,0.00
2013-3-23,55,46,40,43,39,35,84,73,50,29.77,29.67,12,4,12,0.00
2013-3-24,48,40,36,38,35,30,90,82,69,29.80,29.74,13,4,13,0.02
2013-3-25,50,40,36,32,30,28,79,66,47,29.84,29.77,6,2,8,0.00
2013-3-26,48,40,34,31,28,26,73,63,49,29.83,29.78,9,3,10,0.00
2013-3-27,49,40,34,29,27,25,72,61,44,29.81,29.74,12,3,12,0.00
2013-3-28,48,40,30,34,30,24,78,67,52,29.88,29.77,6,1,8,0.00
2013-3-29,46,38,24,33,27,21,89,66,52,29.87,29.72,9,3,13,0.00
2013-3-30,46,36,31,31,22,-100,73,61,53,29.87,29.70,5,-35,12,0.00
2013-3-31,46,35,27,32,27,23,89,72,54,29.94,29.84,8,2,8,0.00